createdAt,value
2019-02-14T00:00:22.825Z,18.00
2019-02-14T00:01:22.780Z,17.99
2019-02-14T00:02:22.726Z,17.96
2019-02-14T00:03:22.674Z,18.00
2019-02-14T00:04:22.627Z,17.99
2019-02-14T00:05:22.577Z,17.99
2019-02-14T00:06:22.525Z,17.97
2019-02-14T00:07:22.475Z,17.92
2019-02-14T00:08:22.425Z,17.97
2019-02-14T00:09:22.375Z,17.99
2019-02-14T00:10:22.326Z,17.89
2019-02-14T00:11:22.275Z,17.97
2019-02-14T00:12:22.227Z,18.05
2019-02-14T00:13:22.176Z,18.03
2019-02-14T00:14:22.126Z,17.89
2019-02-14T00:15:22.075Z,18.02
2019-02-14T00:16:22.026Z,18.03
2019-02-14T00:17:21.976Z,17.96
2019-02-14T00:18:21.976Z,17.96
2019-02-14T00:19:21.876Z,17.97
2019-02-14T00:20:21.825Z,17.93
2019-02-14T00:21:21.778Z,18.00
2019-02-14T00:22:21.728Z,18.02
2019-02-14T00:23:21.677Z,17.99
2019-02-14T00:24:21.626Z,18.00
2019-02-14T00:25:21.576Z,18.02
2019-02-14T00:26:21.527Z,18.00
2019-02-14T00:27:21.793Z,17.97
2019-02-14T00:28:21.426Z,17.97
2019-02-14T00:29:21.376Z,17.89
2019-02-14T00:30:21.326Z,17.87
2019-02-14T00:31:21.276Z,17.97
2019-02-14T00:32:21.228Z,17.95
2019-02-14T00:33:21.180Z,17.93
2019-02-14T00:34:21.127Z,17.90
2019-02-14T00:35:25.122Z,17.97
2019-02-14T00:36:21.026Z,17.89
2019-02-14T00:37:20.978Z,17.96
2019-02-14T00:38:20.927Z,17.90
2019-02-14T00:39:20.876Z,18.00
2019-02-14T00:40:20.826Z,17.89
2019-02-14T00:41:20.777Z,17.96
2019-02-14T00:42:20.727Z,17.92
2019-02-14T00:43:20.676Z,18.00
2019-02-14T00:44:20.627Z,17.96
2019-02-14T00:45:20.577Z,17.92
2019-02-14T00:46:20.528Z,18.05
2019-02-14T00:47:20.477Z,17.93
2019-02-14T00:48:20.427Z,17.90
2019-02-14T00:49:20.379Z,18.00
2019-02-14T00:50:20.329Z,18.03
2019-02-14T00:51:20.277Z,18.03
2019-02-14T00:52:20.228Z,17.96
2019-02-14T00:53:20.184Z,17.97
2019-02-14T00:54:20.128Z,17.90
2019-02-14T00:55:20.077Z,17.97
2019-02-14T00:56:20.078Z,17.97
2019-02-14T00:57:19.978Z,17.90
2019-02-14T00:58:19.928Z,17.97
2019-02-14T00:59:19.877Z,17.97
2019-02-14T01:00:19.827Z,17.93
2019-02-14T01:01:19.778Z,17.93
2019-02-14T01:02:19.734Z,18.03
2019-02-14T01:03:19.678Z,18.00
2019-02-14T01:04:19.628Z,17.95
2019-02-14T01:05:19.578Z,17.93
2019-02-14T01:06:19.531Z,17.90
2019-02-14T01:07:19.477Z,18.05
2019-02-14T01:08:19.428Z,17.97
2019-02-14T01:09:19.379Z,17.89
2019-02-14T01:10:19.330Z,17.89
2019-02-14T01:11:19.282Z,17.87
2019-02-14T01:12:19.231Z,17.92
2019-02-14T01:13:19.179Z,17.96
2019-02-14T01:14:19.128Z,17.97
2019-02-14T01:15:19.079Z,17.90
2019-02-14T01:16:19.028Z,17.96
2019-02-14T01:17:18.980Z,17.92
2019-02-14T01:18:18.929Z,17.97
2019-02-14T01:19:18.879Z,17.97
2019-02-14T01:20:18.829Z,17.97
2019-02-14T01:21:18.782Z,18.00
2019-02-14T01:22:18.732Z,17.89
2019-02-14T01:23:18.680Z,18.03
2019-02-14T01:24:18.628Z,17.99
2019-02-14T01:25:18.580Z,17.97
2019-02-14T01:26:18.530Z,17.90
2019-02-14T01:27:18.480Z,17.93
2019-02-14T01:28:18.436Z,17.93
2019-02-14T01:29:18.379Z,18.07
2019-02-14T01:30:18.331Z,18.00
2019-02-14T01:31:18.279Z,17.90
2019-02-14T01:32:18.229Z,17.89
2019-02-14T01:33:18.179Z,18.02
2019-02-14T01:34:18.131Z,17.96
2019-02-14T01:35:18.080Z,18.00
2019-02-14T01:36:18.031Z,17.93
2019-02-14T01:37:17.981Z,17.90
2019-02-14T01:38:18.298Z,17.95
2019-02-14T01:39:17.883Z,17.97
2019-02-14T01:40:17.831Z,17.89
2019-02-14T01:41:17.783Z,17.90
2019-02-14T01:42:17.731Z,17.90
2019-02-14T01:43:17.681Z,17.90
2019-02-14T01:44:17.631Z,17.92
2019-02-14T01:45:17.583Z,18.03
2019-02-14T01:46:17.532Z,17.99
2019-02-14T01:47:17.481Z,17.89
2019-02-14T01:48:17.431Z,17.92
2019-02-14T01:49:17.382Z,18.00
2019-02-14T01:50:17.332Z,17.99
2019-02-14T01:51:17.281Z,17.99
2019-02-14T01:52:17.234Z,17.97
2019-02-14T01:53:17.181Z,17.97
2019-02-14T01:54:17.132Z,17.96
2019-02-14T01:55:17.083Z,17.89
2019-02-14T01:56:17.032Z,17.89
2019-02-14T01:57:16.983Z,17.99
2019-02-14T01:58:16.931Z,17.97
2019-02-14T01:59:16.881Z,17.89
2019-02-14T02:00:16.833Z,17.90
2019-02-14T02:01:16.781Z,17.92
2019-02-14T02:02:16.733Z,17.89
2019-02-14T02:03:16.682Z,17.93
2019-02-14T02:04:16.632Z,17.93
2019-02-14T02:05:16.582Z,17.86
2019-02-14T02:06:16.538Z,17.90
2019-02-14T02:07:16.483Z,17.92
2019-02-14T02:08:16.433Z,17.93
2019-02-14T02:09:16.383Z,17.92
2019-02-14T02:10:16.335Z,17.96
2019-02-14T02:11:16.284Z,17.89
2019-02-14T02:12:16.233Z,17.96
2019-02-14T02:13:16.183Z,17.90
2019-02-14T02:14:16.134Z,17.89
2019-02-14T02:15:16.085Z,17.95
2019-02-14T02:16:16.033Z,17.89
2019-02-14T02:17:15.984Z,17.86
2019-02-14T02:18:15.934Z,17.90
2019-02-14T02:19:15.883Z,17.89
2019-02-14T02:20:15.832Z,17.99
2019-02-14T02:21:15.782Z,17.96
2019-02-14T02:22:15.737Z,17.93
2019-02-14T02:23:15.684Z,17.89
2019-02-14T02:24:15.633Z,17.89
2019-02-14T02:25:15.586Z,17.99
2019-02-14T02:26:15.534Z,17.86
2019-02-14T02:27:15.484Z,18.05
2019-02-14T02:28:15.434Z,17.95
2019-02-14T02:29:15.385Z,18.00
2019-02-14T02:30:15.341Z,17.95
2019-02-14T02:31:15.289Z,17.89
2019-02-14T02:32:15.234Z,17.89
2019-02-14T02:33:15.184Z,17.89
2019-02-14T02:34:15.135Z,17.96
2019-02-14T02:35:15.084Z,17.97
2019-02-14T02:36:15.039Z,17.96
2019-02-14T02:37:14.983Z,17.93
2019-02-14T02:38:15.042Z,17.99
2019-02-14T02:39:14.884Z,17.92
2019-02-14T02:40:14.835Z,17.99
2019-02-14T02:41:14.784Z,17.95
2019-02-14T02:42:14.735Z,17.92
2019-02-14T02:43:14.684Z,18.00
2019-02-14T02:44:14.635Z,18.03
2019-02-14T02:45:14.585Z,17.90
2019-02-14T02:46:14.546Z,17.92
2019-02-14T02:47:14.484Z,17.93
2019-02-14T02:48:14.434Z,17.84
2019-02-14T02:49:14.389Z,17.99
2019-02-14T02:50:14.335Z,17.89
2019-02-14T02:51:14.286Z,17.84
2019-02-14T02:52:14.236Z,17.86
2019-02-14T02:53:14.184Z,17.89
2019-02-14T02:54:14.136Z,17.93
2019-02-14T02:55:14.146Z,17.89
2019-02-14T02:56:14.036Z,17.92
2019-02-14T02:57:14.040Z,17.95
2019-02-14T02:58:14.035Z,17.89
2019-02-14T02:59:14.323Z,17.92
2019-02-14T03:00:13.835Z,17.93
2019-02-14T03:01:13.787Z,17.87
2019-02-14T03:02:13.736Z,17.89
2019-02-14T03:03:13.685Z,17.93
2019-02-14T03:04:13.636Z,17.86
2019-02-14T03:05:13.586Z,17.95
2019-02-14T03:06:13.536Z,17.84
2019-02-14T03:07:13.486Z,17.92
2019-02-14T03:08:13.439Z,17.84
2019-02-14T03:09:13.386Z,17.89
2019-02-14T03:10:13.335Z,17.93
2019-02-14T03:11:13.286Z,17.97
2019-02-14T03:12:13.236Z,17.87
2019-02-14T03:13:13.187Z,17.92
2019-02-14T03:14:13.145Z,17.89
2019-02-14T03:15:13.141Z,17.92
2019-02-14T03:16:13.087Z,17.95
2019-02-14T03:17:13.145Z,17.90
2019-02-14T03:18:12.938Z,17.97
2019-02-14T03:19:12.888Z,17.95
2019-02-14T03:20:12.836Z,17.89
2019-02-14T03:21:12.790Z,17.89
2019-02-14T03:22:12.736Z,17.95
2019-02-14T03:23:12.686Z,17.92
2019-02-14T03:24:12.638Z,17.90
2019-02-14T03:25:12.589Z,18.00
2019-02-14T03:26:12.537Z,17.93
2019-02-14T03:27:12.486Z,18.00
2019-02-14T03:28:12.437Z,17.96
2019-02-14T03:29:12.387Z,17.87
2019-02-14T03:30:12.349Z,17.97
2019-02-14T03:31:12.287Z,17.93
2019-02-14T03:32:12.240Z,17.87
2019-02-14T03:33:12.203Z,17.90
2019-02-14T03:34:12.138Z,17.86
2019-02-14T03:35:12.086Z,17.92
2019-02-14T03:36:18.794Z,17.86
2019-02-14T03:37:11.988Z,17.90
2019-02-14T03:38:11.937Z,17.89
2019-02-14T03:39:11.938Z,18.02
2019-02-14T03:40:11.839Z,17.89
2019-02-14T03:41:11.788Z,17.90
2019-02-14T03:42:11.738Z,17.92
2019-02-14T03:43:11.686Z,17.97
2019-02-14T03:44:11.640Z,17.95
2019-02-14T03:45:11.588Z,17.93
2019-02-14T03:46:11.542Z,17.89
2019-02-14T03:47:11.488Z,17.87
2019-02-14T03:48:11.438Z,17.92
2019-02-14T03:49:11.388Z,17.93
2019-02-14T03:50:11.345Z,17.95
2019-02-14T03:51:11.288Z,17.92
2019-02-14T03:52:11.246Z,17.96
2019-02-14T03:53:11.189Z,17.99
2019-02-14T03:54:11.139Z,17.89
2019-02-14T03:55:11.088Z,17.90
2019-02-14T03:56:11.039Z,17.95
2019-02-14T03:57:10.988Z,17.89
2019-02-14T03:58:10.991Z,17.92
2019-02-14T03:59:10.895Z,17.87
2019-02-14T04:00:10.839Z,17.95
2019-02-14T04:01:10.789Z,17.93
2019-02-14T04:02:10.753Z,17.92
2019-02-14T04:03:10.689Z,17.99
2019-02-14T04:04:10.639Z,17.97
2019-02-14T04:05:10.590Z,17.97
2019-02-14T04:06:10.540Z,17.89
2019-02-14T04:07:10.489Z,17.96
2019-02-14T04:08:10.439Z,17.97
2019-02-14T04:09:10.397Z,17.92
2019-02-14T04:10:10.343Z,17.93
2019-02-14T04:11:10.289Z,17.86
2019-02-14T04:12:10.241Z,17.95
2019-02-14T04:13:10.190Z,17.89
2019-02-14T04:14:10.140Z,17.90
2019-02-14T04:15:10.089Z,17.89
2019-02-14T04:16:10.039Z,17.90
2019-02-14T04:17:09.989Z,17.89
2019-02-14T04:18:09.990Z,17.90
2019-02-14T04:19:09.889Z,17.90
2019-02-14T04:20:09.842Z,17.92
2019-02-14T04:21:09.790Z,17.89
2019-02-14T04:22:09.740Z,17.90
2019-02-14T04:23:09.690Z,17.87
2019-02-14T04:24:09.641Z,17.84
2019-02-14T04:25:09.593Z,17.87
2019-02-14T04:26:09.540Z,17.89
2019-02-14T04:27:09.489Z,17.89
2019-02-14T04:28:09.440Z,17.86
2019-02-14T04:29:09.391Z,17.89
2019-02-14T04:30:09.341Z,17.89
2019-02-14T04:31:09.290Z,17.90
2019-02-14T04:32:09.240Z,17.90
2019-02-14T04:33:09.192Z,17.90
2019-02-14T04:34:09.142Z,17.81
2019-02-14T04:35:09.089Z,17.89
2019-02-14T04:36:09.039Z,17.87
2019-02-14T04:37:09.041Z,17.89
2019-02-14T04:38:08.941Z,17.92
2019-02-14T04:39:08.892Z,17.89
2019-02-14T04:40:08.841Z,17.86
2019-02-14T04:41:08.794Z,17.93
2019-02-14T04:42:08.741Z,17.92
2019-02-14T04:43:08.691Z,17.90
2019-02-14T04:44:08.642Z,17.89
2019-02-14T04:45:08.600Z,17.92
2019-02-14T04:46:08.541Z,17.90
2019-02-14T04:47:08.490Z,17.86
2019-02-14T04:48:08.441Z,17.93
2019-02-14T04:49:08.391Z,17.93
2019-02-14T04:50:08.341Z,17.89
2019-02-14T04:51:08.290Z,17.86
2019-02-14T04:52:08.252Z,17.86
2019-02-14T04:53:08.191Z,17.86
2019-02-14T04:54:08.141Z,17.93
2019-02-14T04:55:08.090Z,17.92
2019-02-14T04:56:08.042Z,17.96
2019-02-14T04:57:07.991Z,17.90
2019-02-14T04:58:07.942Z,17.93
2019-02-14T04:59:07.941Z,17.90
2019-02-14T05:00:07.841Z,17.92
2019-02-14T05:01:07.791Z,17.92
2019-02-14T05:02:07.742Z,17.86
2019-02-14T05:03:07.695Z,17.93
2019-02-14T05:04:07.641Z,17.89
2019-02-14T05:05:07.590Z,17.89
2019-02-14T05:06:07.540Z,17.90
2019-02-14T05:07:07.490Z,17.93
2019-02-14T05:08:07.441Z,17.87
2019-02-14T05:09:07.392Z,17.96
2019-02-14T05:10:07.342Z,17.84
2019-02-14T05:11:07.291Z,17.86
2019-02-14T05:12:07.241Z,17.87
2019-02-14T05:13:07.192Z,17.89
2019-02-14T05:14:07.142Z,17.87
2019-02-14T05:15:07.092Z,17.89
2019-02-14T05:16:07.040Z,17.90
2019-02-14T05:17:06.992Z,17.87
2019-02-14T05:18:06.942Z,17.90
2019-02-14T05:19:06.942Z,17.89
2019-02-14T05:20:06.841Z,17.84
2019-02-14T05:21:06.792Z,17.89
2019-02-14T05:22:06.745Z,17.86
2019-02-14T05:23:06.693Z,17.90
2019-02-14T05:24:06.642Z,17.89
2019-02-14T05:25:06.592Z,17.90
2019-02-14T05:26:06.541Z,17.90
2019-02-14T05:27:06.497Z,17.90
2019-02-14T05:28:06.442Z,17.89
2019-02-14T05:29:06.392Z,17.87
2019-02-14T05:30:06.377Z,17.93
2019-02-14T05:31:06.294Z,17.93
2019-02-14T05:32:06.245Z,17.90
2019-02-14T05:33:06.192Z,17.92
2019-02-14T05:34:06.143Z,18.00
2019-02-14T05:35:06.092Z,17.93
2019-02-14T05:36:06.041Z,17.87
2019-02-14T05:37:05.992Z,17.93
2019-02-14T05:38:05.993Z,17.92
2019-02-14T05:39:05.892Z,17.92
2019-02-14T05:40:05.897Z,17.93
2019-02-14T05:41:05.792Z,17.86
2019-02-14T05:42:05.743Z,17.89
2019-02-14T05:43:05.692Z,17.93
2019-02-14T05:44:05.643Z,17.95
2019-02-14T05:45:05.599Z,17.87
2019-02-14T05:46:05.543Z,17.89
2019-02-14T05:47:05.494Z,17.86
2019-02-14T05:48:05.443Z,17.87
2019-02-14T05:49:05.395Z,17.90
2019-02-14T05:50:05.343Z,17.87
2019-02-14T05:51:05.293Z,17.93
2019-02-14T05:52:05.243Z,17.89
2019-02-14T05:53:05.193Z,17.87
2019-02-14T05:54:05.144Z,17.93
2019-02-14T05:55:05.093Z,17.86
2019-02-14T05:56:05.043Z,17.93
2019-02-14T05:57:04.993Z,17.95
2019-02-14T05:58:04.943Z,17.93
2019-02-14T05:59:04.895Z,17.96
2019-02-14T06:00:04.843Z,17.86
2019-02-14T06:01:04.801Z,17.86
2019-02-14T06:02:04.743Z,17.87
2019-02-14T06:03:04.694Z,17.93
2019-02-14T06:04:04.643Z,17.92
2019-02-14T06:05:04.593Z,17.89
2019-02-14T06:06:04.544Z,17.92
2019-02-14T06:07:04.503Z,17.87
2019-02-14T06:08:04.446Z,17.89
2019-02-14T06:09:04.394Z,17.90
2019-02-14T06:10:04.345Z,17.92
2019-02-14T06:11:04.297Z,17.84
2019-02-14T06:12:04.243Z,17.89
2019-02-14T06:13:04.193Z,17.90
2019-02-14T06:14:04.144Z,17.97
2019-02-14T06:15:04.093Z,17.87
2019-02-14T06:16:04.044Z,17.97
2019-02-14T06:17:04.001Z,17.89
2019-02-14T06:18:03.945Z,17.93
2019-02-14T06:19:03.894Z,17.89
2019-02-14T06:20:03.843Z,17.99
2019-02-14T06:21:03.795Z,17.90
2019-02-14T06:22:03.745Z,17.96
2019-02-14T06:23:03.694Z,17.87
2019-02-14T06:24:03.644Z,17.96
2019-02-14T06:25:03.596Z,17.86
2019-02-14T06:26:03.548Z,17.89
2019-02-14T06:27:03.499Z,17.95
2019-02-14T06:28:03.444Z,17.97
2019-02-14T06:29:03.395Z,17.87
2019-02-14T06:30:03.348Z,17.97
2019-02-14T06:31:03.297Z,17.96
2019-02-14T06:32:03.245Z,17.89
2019-02-14T06:33:03.195Z,17.95
2019-02-14T06:34:03.145Z,17.93
2019-02-14T06:35:03.095Z,18.05
2019-02-14T06:36:03.045Z,17.90
2019-02-14T06:37:09.516Z,18.00
2019-02-14T06:38:03.045Z,17.97
2019-02-14T06:39:02.896Z,17.96
2019-02-14T06:40:02.846Z,18.00
2019-02-14T06:41:03.661Z,17.90
2019-02-14T06:42:02.746Z,17.90
2019-02-14T06:43:02.696Z,17.93
2019-02-14T06:44:02.645Z,17.93
2019-02-14T06:45:02.595Z,17.93
2019-02-14T06:46:02.546Z,17.89
2019-02-14T06:47:02.496Z,17.96
2019-02-14T06:48:02.445Z,17.97
2019-02-14T06:49:02.399Z,17.95
2019-02-14T06:50:02.357Z,18.00
2019-02-14T06:51:02.298Z,17.89
2019-02-14T06:52:02.246Z,17.92
2019-02-14T06:53:02.197Z,17.93
2019-02-14T06:54:02.147Z,18.05
2019-02-14T06:55:02.098Z,17.89
2019-02-14T06:56:02.047Z,17.90
2019-02-14T06:57:02.000Z,17.97
2019-02-14T06:58:01.973Z,17.87
2019-02-14T06:59:01.902Z,17.95
2019-02-14T07:00:01.847Z,17.89
2019-02-14T07:01:01.796Z,17.89
2019-02-14T07:02:01.749Z,17.90
2019-02-14T07:03:01.697Z,17.90
2019-02-14T07:04:01.648Z,17.90
2019-02-14T07:05:01.596Z,17.99
2019-02-14T07:06:01.548Z,17.90
2019-02-14T07:07:01.497Z,17.96
2019-02-14T07:08:01.448Z,17.93
2019-02-14T07:09:01.402Z,17.96
2019-02-14T07:10:01.350Z,17.89
2019-02-14T07:11:01.300Z,17.92
2019-02-14T07:12:01.248Z,17.96
2019-02-14T07:13:01.198Z,18.02
2019-02-14T07:14:01.147Z,17.89
2019-02-14T07:15:01.097Z,18.00
2019-02-14T07:16:01.049Z,17.96
2019-02-14T07:17:00.999Z,17.92
2019-02-14T07:18:00.956Z,17.90
2019-02-14T07:19:00.899Z,17.93
2019-02-14T07:20:00.848Z,17.92
2019-02-14T07:21:00.798Z,17.97
2019-02-14T07:22:00.750Z,17.89
2019-02-14T07:23:00.703Z,17.99
2019-02-14T07:24:00.655Z,17.97
2019-02-14T07:25:00.599Z,18.02
2019-02-14T07:26:00.554Z,18.03
2019-02-14T07:27:00.502Z,17.99
2019-02-14T07:28:00.450Z,17.97
2019-02-14T07:29:00.400Z,18.07
2019-02-14T07:30:00.350Z,18.10
2019-02-14T07:31:00.300Z,18.08
2019-02-14T07:32:00.250Z,18.18
2019-02-14T07:33:00.207Z,18.15
2019-02-14T07:34:00.150Z,18.12
2019-02-14T07:35:00.270Z,18.14
2019-02-14T07:36:00.050Z,18.12
2019-02-14T07:37:00.002Z,18.12
2019-02-14T07:37:59.951Z,18.15
2019-02-14T07:38:59.900Z,18.15
2019-02-14T07:39:59.851Z,18.21
2019-02-14T07:40:59.801Z,18.18
2019-02-14T07:41:59.752Z,18.15
2019-02-14T07:42:59.703Z,18.20
2019-02-14T07:43:59.652Z,18.15
2019-02-14T07:44:59.602Z,18.20
2019-02-14T07:45:59.551Z,18.17
2019-02-14T07:46:59.502Z,18.20
2019-02-14T07:47:59.451Z,18.12
2019-02-14T07:48:59.405Z,18.15
2019-02-14T07:49:59.356Z,18.15
2019-02-14T07:50:59.303Z,18.20
2019-02-14T07:51:59.254Z,18.15
2019-02-14T07:52:59.204Z,18.18
2019-02-14T07:53:59.154Z,18.25
2019-02-14T07:54:59.128Z,18.20
2019-02-14T07:55:59.056Z,18.18
2019-02-14T07:56:59.006Z,18.17
2019-02-14T07:57:58.954Z,18.26
2019-02-14T07:58:58.904Z,18.25
2019-02-14T07:59:58.855Z,18.26
2019-02-14T08:00:58.806Z,18.20
2019-02-14T08:01:58.754Z,18.20
2019-02-14T08:02:58.705Z,18.20
2019-02-14T08:03:58.655Z,18.21
2019-02-14T08:04:58.605Z,18.15
2019-02-14T08:05:58.555Z,18.15
2019-02-14T08:06:58.506Z,18.15
2019-02-14T08:07:58.458Z,18.20
2019-02-14T08:08:58.407Z,18.18
2019-02-14T08:09:58.356Z,18.21
2019-02-14T08:10:58.307Z,18.20
2019-02-14T08:11:58.256Z,18.17
2019-02-14T08:12:58.208Z,18.17
2019-02-14T08:13:58.158Z,18.18
2019-02-14T08:14:58.108Z,18.18
2019-02-14T08:15:58.057Z,18.23
2019-02-14T08:16:58.008Z,18.23
2019-02-14T08:17:58.009Z,18.17
2019-02-14T08:18:59.994Z,18.20
2019-02-14T08:19:57.859Z,18.26
2019-02-14T08:20:57.809Z,18.17
2019-02-14T08:21:57.760Z,18.23
2019-02-14T08:22:57.708Z,18.21
2019-02-14T08:23:57.660Z,18.21
2019-02-14T08:24:57.611Z,18.21
2019-02-14T08:25:57.561Z,18.23
2019-02-14T08:26:57.510Z,18.27
2019-02-14T08:27:57.461Z,18.26
2019-02-14T08:28:57.411Z,18.26
2019-02-14T08:29:57.362Z,18.29
2019-02-14T08:30:57.313Z,18.30
2019-02-14T08:31:57.262Z,18.25
2019-02-14T08:32:57.214Z,18.29
2019-02-14T08:33:57.162Z,18.32
2019-02-14T08:34:57.113Z,18.15
2019-02-14T08:35:57.064Z,18.21
2019-02-14T08:36:57.015Z,18.33
2019-02-14T08:37:56.965Z,18.25
2019-02-14T08:38:56.914Z,18.30
2019-02-14T08:39:56.864Z,18.26
2019-02-14T08:40:56.818Z,18.30
2019-02-14T08:41:56.772Z,18.21
2019-02-14T08:42:58.578Z,18.27
2019-02-14T08:43:56.666Z,18.21
2019-02-14T08:44:56.617Z,18.17
2019-02-14T08:45:56.567Z,18.25
2019-02-14T08:46:56.517Z,18.26
2019-02-14T08:47:56.467Z,18.29
2019-02-14T08:48:56.418Z,18.29
2019-02-14T08:49:56.368Z,18.27
2019-02-14T08:50:56.365Z,18.29
2019-02-14T08:51:56.268Z,18.29
2019-02-14T08:52:56.219Z,18.26
2019-02-14T08:53:56.169Z,18.32
2019-02-14T08:54:56.119Z,18.30
2019-02-14T08:55:56.071Z,18.27
2019-02-14T08:56:56.020Z,18.30
2019-02-14T08:57:55.975Z,18.30
2019-02-14T08:58:55.971Z,18.29
2019-02-14T08:59:55.872Z,18.32
2019-02-14T09:00:55.823Z,18.29
2019-02-14T09:01:57.522Z,18.37
2019-02-14T09:02:55.724Z,18.26
2019-02-14T09:03:55.674Z,18.27
2019-02-14T09:04:55.629Z,18.32
2019-02-14T09:05:55.582Z,18.27
2019-02-14T09:06:55.524Z,18.29
2019-02-14T09:07:55.482Z,18.29
2019-02-14T09:08:55.427Z,18.29
2019-02-14T09:09:55.376Z,18.29
2019-02-14T09:10:55.326Z,18.32
2019-02-14T09:11:55.277Z,18.36
2019-02-14T09:12:55.228Z,18.39
2019-02-14T09:13:55.179Z,18.35
2019-02-14T09:14:55.128Z,18.36
2019-02-14T09:15:55.080Z,18.36
2019-02-14T09:16:55.030Z,18.37
2019-02-14T09:17:54.989Z,18.37
2019-02-14T09:18:54.931Z,18.35
2019-02-14T09:19:54.935Z,18.39
2019-02-14T09:20:54.832Z,18.35
2019-02-14T09:21:54.783Z,18.33
2019-02-14T09:22:54.733Z,18.42
2019-02-14T09:23:54.684Z,18.48
2019-02-14T09:24:54.633Z,18.45
2019-02-14T09:25:54.586Z,18.48
2019-02-14T09:26:54.537Z,18.57
2019-02-14T09:27:54.487Z,18.52
2019-02-14T09:28:54.437Z,18.57
2019-02-14T09:29:54.387Z,18.55
2019-02-14T09:30:54.340Z,18.65
2019-02-14T09:31:54.289Z,18.62
2019-02-14T09:32:54.242Z,18.57
2019-02-14T09:33:54.272Z,18.65
2019-02-14T09:34:54.140Z,18.60
2019-02-14T09:35:54.092Z,18.65
2019-02-14T09:36:54.042Z,18.60
2019-02-14T09:38:02.762Z,18.60
2019-02-14T09:38:53.994Z,18.67
2019-02-14T09:39:53.894Z,18.63
2019-02-14T09:40:53.852Z,18.63
2019-02-14T09:41:53.796Z,18.60
2019-02-14T09:42:53.746Z,18.67
2019-02-14T09:43:53.696Z,18.75
2019-02-14T09:44:53.648Z,18.70
2019-02-14T09:45:53.600Z,18.75
2019-02-14T09:46:53.619Z,18.72
2019-02-14T09:47:54.011Z,18.73
2019-02-14T09:48:53.451Z,18.69
2019-02-14T09:49:53.402Z,18.69
2019-02-14T09:50:53.365Z,18.75
2019-02-14T09:51:53.312Z,18.76
2019-02-14T09:52:53.253Z,18.81
2019-02-14T09:53:53.208Z,18.69
2019-02-14T09:54:53.158Z,18.75
2019-02-14T09:55:53.109Z,18.72
2019-02-14T09:56:53.076Z,18.78
2019-02-14T09:57:53.009Z,18.80
2019-02-14T09:58:52.958Z,18.76
2019-02-14T09:59:52.911Z,18.73
2019-02-14T10:00:52.926Z,18.87
2019-02-14T10:01:52.811Z,18.85
2019-02-14T10:02:52.770Z,18.85
2019-02-14T10:03:52.713Z,18.85
2019-02-14T10:04:52.665Z,18.80
2019-02-14T10:05:52.617Z,18.90
2019-02-14T10:06:52.566Z,18.85
2019-02-14T10:07:52.516Z,18.85
2019-02-14T10:08:52.475Z,18.88
2019-02-14T10:09:52.419Z,18.85
2019-02-14T10:10:52.374Z,18.88
2019-02-14T10:11:52.321Z,18.85
2019-02-14T10:12:52.308Z,18.85
2019-02-14T10:13:52.225Z,18.85
2019-02-14T10:14:52.172Z,18.87
2019-02-14T10:15:52.124Z,18.87
2019-02-14T10:16:52.074Z,18.87
2019-02-14T10:17:52.029Z,18.92
2019-02-14T10:18:51.977Z,18.85
2019-02-14T10:19:51.984Z,18.82
2019-02-14T10:20:51.889Z,18.87
2019-02-14T10:21:51.834Z,18.85
2019-02-14T10:22:51.781Z,18.85
2019-02-14T10:23:51.734Z,18.84
2019-02-14T10:24:52.664Z,18.84
2019-02-14T10:25:51.634Z,18.82
2019-02-14T10:26:51.584Z,18.85
2019-02-14T10:27:51.536Z,18.88
2019-02-14T10:28:51.486Z,18.85
2019-02-14T10:29:51.444Z,18.82
2019-02-14T10:30:51.387Z,18.81
2019-02-14T10:31:51.340Z,18.84
2019-02-14T10:32:51.291Z,18.84
2019-02-14T10:33:51.245Z,18.75
2019-02-14T10:34:51.191Z,18.85
2019-02-14T10:35:51.143Z,18.69
2019-02-14T10:36:51.096Z,18.75
2019-02-14T10:37:51.049Z,18.78
2019-02-14T10:38:51.047Z,18.70
2019-02-14T10:39:50.997Z,18.82
2019-02-14T10:40:50.898Z,18.75
2019-02-14T10:41:50.850Z,18.76
2019-02-14T10:42:50.802Z,18.78
2019-02-14T10:43:50.750Z,18.75
2019-02-14T10:44:50.701Z,18.75
2019-02-14T10:45:50.652Z,18.75
2019-02-14T10:46:50.604Z,18.76
2019-02-14T10:47:50.557Z,18.75
2019-02-14T10:48:50.506Z,18.73
2019-02-14T10:49:50.458Z,18.75
2019-02-14T10:50:50.407Z,18.76
2019-02-14T10:51:50.358Z,18.76
2019-02-14T10:52:50.310Z,18.78
2019-02-14T10:53:50.262Z,18.81
2019-02-14T10:54:50.212Z,18.73
2019-02-14T10:55:50.162Z,18.75
2019-02-14T10:56:50.113Z,18.80
2019-02-14T10:57:50.065Z,18.75
2019-02-14T10:58:50.016Z,18.82
2019-02-14T10:59:49.967Z,18.78
2019-02-14T11:00:49.975Z,18.75
2019-02-14T11:01:49.870Z,18.76
2019-02-14T11:02:49.819Z,18.73
2019-02-14T11:03:49.771Z,18.73
2019-02-14T11:04:49.722Z,18.75
2019-02-14T11:05:49.672Z,18.73
2019-02-14T11:06:49.678Z,18.76
2019-02-14T11:07:49.574Z,18.72
2019-02-14T11:08:49.525Z,18.82
2019-02-14T11:09:49.477Z,18.73
2019-02-14T11:10:49.426Z,18.73
2019-02-14T11:11:49.378Z,18.75
2019-02-14T11:12:49.328Z,18.72
2019-02-14T11:13:49.279Z,18.73
2019-02-14T11:14:49.231Z,18.80
2019-02-14T11:15:49.181Z,18.72
2019-02-14T11:16:49.133Z,18.67
2019-02-14T11:17:49.320Z,18.70
2019-02-14T11:18:49.034Z,18.70
2019-02-14T11:19:49.040Z,18.66
2019-02-14T11:20:48.987Z,18.70
2019-02-14T11:21:48.888Z,18.66
2019-02-14T11:22:49.399Z,18.69
2019-02-14T11:23:48.788Z,18.57
2019-02-14T11:24:48.742Z,18.66
2019-02-14T11:25:48.690Z,18.72
2019-02-14T11:26:48.640Z,18.58
2019-02-14T11:27:48.591Z,18.63
2019-02-14T11:28:48.546Z,18.60
2019-02-14T11:29:48.496Z,18.57
2019-02-14T11:30:48.443Z,18.63
2019-02-14T11:31:48.400Z,18.63
2019-02-14T11:32:48.346Z,18.69
2019-02-14T11:33:48.311Z,18.57
2019-02-14T11:34:48.247Z,18.62
2019-02-14T11:35:48.201Z,18.70
2019-02-14T11:36:48.149Z,18.75
2019-02-14T11:37:48.101Z,18.75
2019-02-14T11:38:48.050Z,18.69
2019-02-14T11:39:48.003Z,18.72
2019-02-14T11:40:47.953Z,18.72
2019-02-14T11:41:47.905Z,18.76
2019-02-14T11:42:47.855Z,18.72
2019-02-14T11:43:47.806Z,18.72
2019-02-14T11:44:47.756Z,18.76
2019-02-14T11:45:47.708Z,18.75
2019-02-14T11:46:51.593Z,18.78
2019-02-14T11:47:47.610Z,18.76
2019-02-14T11:48:48.042Z,18.70
2019-02-14T11:49:47.512Z,18.72
2019-02-14T11:50:47.462Z,18.70
2019-02-14T11:51:47.413Z,18.72
2019-02-14T11:52:47.363Z,18.78
2019-02-14T11:53:47.315Z,18.72
2019-02-14T11:54:47.265Z,18.70
2019-02-14T11:55:47.216Z,18.82
2019-02-14T11:56:47.167Z,18.78
2019-02-14T11:57:47.117Z,18.85
2019-02-14T11:58:47.068Z,18.72
2019-02-14T11:59:47.021Z,18.75
2019-02-14T12:00:46.971Z,18.85
2019-02-14T12:01:54.995Z,18.73
2019-02-14T12:02:55.109Z,18.75
2019-02-14T12:03:46.823Z,18.81
2019-02-14T12:04:46.774Z,18.78
2019-02-14T12:05:46.726Z,18.72
2019-02-14T12:06:46.751Z,18.70
2019-02-14T12:07:46.632Z,18.78
2019-02-14T12:08:57.764Z,18.76
2019-02-14T12:09:46.529Z,18.78
2019-02-14T12:10:46.478Z,18.78
2019-02-14T12:11:46.431Z,18.78
2019-02-14T12:12:46.381Z,18.80
2019-02-14T12:13:46.373Z,18.76
2019-02-14T12:14:46.282Z,18.78
2019-02-14T12:15:46.233Z,18.75
2019-02-14T12:16:46.185Z,18.76
2019-02-14T12:17:46.136Z,18.72
2019-02-14T12:18:46.086Z,18.72
2019-02-14T12:19:46.037Z,18.75
2019-02-14T12:20:47.864Z,18.76
2019-02-14T12:21:45.988Z,18.69
2019-02-14T12:22:47.073Z,18.70
2019-02-14T12:23:45.854Z,18.72
2019-02-14T12:24:45.795Z,18.72
2019-02-14T12:25:45.742Z,18.72
2019-02-14T12:26:45.702Z,18.75
2019-02-14T12:27:45.645Z,18.66
2019-02-14T12:28:45.596Z,18.69
2019-02-14T12:29:45.548Z,18.65
2019-02-14T12:30:45.495Z,18.73
2019-02-14T12:31:45.450Z,18.66
2019-02-14T12:32:45.398Z,18.72
2019-02-14T12:33:45.349Z,18.66
2019-02-14T12:34:45.301Z,18.75
2019-02-14T12:35:45.249Z,18.57
2019-02-14T12:36:45.204Z,18.75
2019-02-14T12:37:45.152Z,18.60
2019-02-14T12:38:45.107Z,18.58
2019-02-14T12:39:45.108Z,18.66
2019-02-14T12:40:45.105Z,18.66
2019-02-14T12:41:45.105Z,18.66
2019-02-14T12:42:45.055Z,18.60
2019-02-14T12:43:44.856Z,18.66
2019-02-14T12:44:44.808Z,18.66
2019-02-14T12:45:44.758Z,18.72
2019-02-14T12:46:44.708Z,18.67
2019-02-14T12:47:44.660Z,18.60
2019-02-14T12:48:44.609Z,18.58
2019-02-14T12:49:44.567Z,18.67
2019-02-14T12:50:44.511Z,18.62
2019-02-14T12:51:44.461Z,18.63